Terminal Aerodrome Forecast
Issued by NWS Newport/Morehead City, NC

Home | Current Version | Previous Version | Text Only | Print | Product List | Glossary On
Versions: 1 2 3 4 5 6 7 8 9 10 11 12 13 14
000
FTUS42 KMHX 041720
TAFEWN
TAF
KEWN 041720Z 0418/0518 25015G22KT P6SM VCTS SCT050CB SCT100
     FM050000 22007KT P6SM VCTS SCT050CB BKN100
     FM050600 VRB03KT P6SM SCT100
     FM051200 24007KT P6SM BKN250=

USA.gov is the U.S. government's official web portal to all federal, state and local government web resources and services.